createdAt,value
2023-05-09T00:00:06.243Z,1098.00
2023-05-09T00:01:06.227Z,1106.00
2023-05-09T00:02:06.314Z,1103.00
2023-05-09T00:03:06.379Z,1104.00
2023-05-09T00:04:06.370Z,1139.00
2023-05-09T00:05:06.325Z,1125.00
2023-05-09T00:06:06.372Z,1086.00
2023-05-09T00:07:06.422Z,1091.00
2023-05-09T00:08:06.433Z,1075.00
2023-05-09T00:09:06.475Z,1079.00
2023-05-09T00:10:06.508Z,1080.00
2023-05-09T00:11:06.611Z,1082.00
2023-05-09T00:12:06.579Z,1070.00
2023-05-09T00:13:06.621Z,1073.00
2023-05-09T00:14:06.621Z,1078.00
2023-05-09T00:15:06.647Z,1061.00
2023-05-09T00:16:06.724Z,1064.00
2023-05-09T00:17:06.723Z,1053.00
2023-05-09T00:18:06.741Z,1070.00
2023-05-09T00:19:06.789Z,1072.00
2023-05-09T00:20:06.802Z,1077.00
2023-05-09T00:21:06.848Z,1102.00
2023-05-09T00:22:06.866Z,1103.00
2023-05-09T00:23:06.893Z,1085.00
2023-05-09T00:24:06.950Z,1099.00
2023-05-09T00:25:06.968Z,1104.00
2023-05-09T00:26:06.989Z,1094.00
2023-05-09T00:27:07.122Z,1121.00
2023-05-09T00:28:07.106Z,1129.00
2023-05-09T00:29:07.106Z,1129.00
2023-05-09T00:30:07.148Z,1128.00
2023-05-09T00:31:07.179Z,1122.00
2023-05-09T00:32:07.260Z,1133.00
2023-05-09T00:33:07.269Z,1131.00
2023-05-09T00:34:07.286Z,1135.00
2023-05-09T00:35:07.316Z,1115.00
2023-05-09T00:36:07.340Z,1144.00
2023-05-09T00:37:07.379Z,1125.00
2023-05-09T00:38:07.412Z,1122.00
2023-05-09T00:39:07.424Z,1118.00
2023-05-09T00:40:07.468Z,1121.00
2023-05-09T00:41:07.496Z,1112.00
2023-05-09T00:42:07.536Z,1106.00
2023-05-09T00:43:07.646Z,1105.00
2023-05-09T00:44:07.608Z,1113.00
2023-05-09T00:45:07.666Z,1102.00
2023-05-09T00:46:07.706Z,1104.00
2023-05-09T00:47:07.703Z,1109.00
2023-05-09T00:48:07.801Z,1089.00
2023-05-09T00:49:07.758Z,1091.00
2023-05-09T00:50:07.789Z,1104.00
2023-05-09T00:51:07.841Z,1076.00
2023-05-09T00:52:07.878Z,1059.00
2023-05-09T00:53:07.928Z,1076.00
2023-05-09T00:54:09.289Z,1075.00
2023-05-09T00:55:07.961Z,1067.00
2023-05-09T00:56:07.999Z,1085.00
2023-05-09T00:57:08.051Z,1086.00
2023-05-09T00:58:08.070Z,1080.00
2023-05-09T00:59:08.192Z,1056.00
2023-05-09T01:00:08.185Z,1078.00
2023-05-09T01:01:08.219Z,1066.00
2023-05-09T01:02:08.219Z,1098.00
2023-05-09T01:03:08.486Z,1099.00
2023-05-09T01:04:08.334Z,1085.00
2023-05-09T01:05:08.338Z,1064.00
2023-05-09T01:06:08.382Z,1065.00
2023-05-09T01:07:08.429Z,1096.00
2023-05-09T01:08:08.468Z,1084.00
2023-05-09T01:09:08.509Z,1065.00
2023-05-09T01:10:08.578Z,1062.00
2023-05-09T01:11:08.580Z,1072.00
2023-05-09T01:12:08.616Z,1087.00
2023-05-09T01:13:08.725Z,1074.00
2023-05-09T01:14:08.697Z,1101.00
2023-05-09T01:15:08.814Z,1089.00
2023-05-09T01:16:08.894Z,1064.00
2023-05-09T01:17:08.820Z,1065.00
2023-05-09T01:18:08.891Z,1108.00
2023-05-09T01:19:08.988Z,1095.00
2023-05-09T01:20:08.950Z,1112.00
2023-05-09T01:21:08.993Z,1084.00
2023-05-09T01:22:09.049Z,1081.00
2023-05-09T01:23:09.049Z,1078.00
2023-05-09T01:24:09.080Z,1098.00
2023-05-09T01:25:09.129Z,1092.00
2023-05-09T01:26:09.149Z,1093.00
2023-05-09T01:27:09.215Z,1077.00
2023-05-09T01:28:09.256Z,1081.00
2023-05-09T01:29:09.277Z,1082.00
2023-05-09T01:30:09.326Z,1103.00
2023-05-09T01:31:09.496Z,1095.00
2023-05-09T01:32:09.450Z,1115.00
2023-05-09T01:33:09.508Z,1121.00
2023-05-09T01:34:09.487Z,1118.00
2023-05-09T01:35:09.533Z,1111.00
2023-05-09T01:36:09.575Z,1141.00
2023-05-09T01:37:09.629Z,1148.00
2023-05-09T01:38:09.648Z,1175.00
2023-05-09T01:39:09.696Z,1176.00
2023-05-09T01:40:09.748Z,1175.00
2023-05-09T01:41:09.792Z,1203.00
2023-05-09T01:42:09.830Z,1190.00
2023-05-09T01:43:09.947Z,1205.00
2023-05-09T01:44:09.966Z,1204.00
2023-05-09T01:45:09.969Z,1198.00
2023-05-09T01:46:10.021Z,1210.00
2023-05-09T01:47:10.114Z,1187.00
2023-05-09T01:48:10.149Z,1205.00
2023-05-09T01:49:10.121Z,1189.00
2023-05-09T01:50:10.169Z,1212.00
2023-05-09T01:51:10.209Z,1215.00
2023-05-09T01:52:10.263Z,1222.00
2023-05-09T01:53:10.304Z,1220.00
2023-05-09T01:54:10.331Z,1231.00
2023-05-09T01:55:10.383Z,1216.00
2023-05-09T01:56:10.433Z,1207.00
2023-05-09T01:57:10.479Z,1207.00
2023-05-09T01:58:10.518Z,1208.00
2023-05-09T01:59:10.576Z,1207.00
2023-05-09T02:00:10.630Z,1198.00
2023-05-09T02:01:10.705Z,1203.00
2023-05-09T02:02:10.743Z,1229.00
2023-05-09T02:03:10.850Z,1228.00
2023-05-09T02:04:10.794Z,1217.00
2023-05-09T02:05:10.829Z,1213.00
2023-05-09T02:06:10.865Z,1193.00
2023-05-09T02:07:10.918Z,1187.00
2023-05-09T02:08:10.977Z,1186.00
2023-05-09T02:09:11.011Z,1186.00
2023-05-09T02:10:11.056Z,1180.00
2023-05-09T02:11:11.093Z,1190.00
2023-05-09T02:12:11.135Z,1196.00
2023-05-09T02:13:11.241Z,1197.00
2023-05-09T02:14:11.240Z,1199.00
2023-05-09T02:15:11.311Z,1202.00
2023-05-09T02:16:11.336Z,1215.00
2023-05-09T02:17:11.422Z,1206.00
2023-05-09T02:18:11.460Z,1195.00
2023-05-09T02:19:11.557Z,1186.00
2023-05-09T02:20:11.603Z,1188.00
2023-05-09T02:21:11.629Z,1196.00
2023-05-09T02:22:11.601Z,1182.00
2023-05-09T02:23:11.657Z,1181.00
2023-05-09T02:24:11.698Z,1205.00
2023-05-09T02:25:11.804Z,1193.00
2023-05-09T02:26:11.804Z,1182.00
2023-05-09T02:27:11.924Z,1192.00
2023-05-09T02:28:11.901Z,1184.00
2023-05-09T02:29:11.916Z,1173.00
2023-05-09T02:30:11.970Z,1197.00
2023-05-09T02:31:12.011Z,1200.00
2023-05-09T02:32:12.148Z,1205.00
2023-05-09T02:33:12.129Z,1202.00
2023-05-09T02:34:12.150Z,1210.00
2023-05-09T02:35:12.427Z,1203.00
2023-05-09T02:36:12.250Z,1228.00
2023-05-09T02:37:12.448Z,1227.00
2023-05-09T02:38:12.374Z,1246.00
2023-05-09T02:39:12.381Z,1230.00
2023-05-09T02:40:12.435Z,1236.00
2023-05-09T02:41:12.467Z,1241.00
2023-05-09T02:42:12.511Z,1228.00
2023-05-09T02:43:12.560Z,1233.00
2023-05-09T02:44:12.625Z,1215.00
2023-05-09T02:45:12.790Z,1231.00
2023-05-09T02:46:12.730Z,1213.00
2023-05-09T02:47:12.743Z,1212.00
2023-05-09T02:48:12.858Z,1214.00
2023-05-09T02:49:22.756Z,1188.00
2023-05-09T02:50:13.824Z,1190.00
2023-05-09T02:51:12.888Z,1196.00
2023-05-09T02:52:12.850Z,1196.00
2023-05-09T02:53:12.810Z,1202.00
2023-05-09T02:54:12.846Z,1216.00
2023-05-09T02:55:12.917Z,1200.00
2023-05-09T02:56:12.790Z,1188.00
2023-05-09T02:57:12.768Z,1188.00
2023-05-09T02:58:14.797Z,1189.00
2023-05-09T02:59:12.754Z,1211.00
2023-05-09T03:00:12.792Z,1213.00
2023-05-09T03:01:12.897Z,1202.00
2023-05-09T03:02:12.908Z,1189.00
2023-05-09T03:03:13.056Z,1208.00
2023-05-09T03:04:13.001Z,1203.00
2023-05-09T03:05:13.270Z,1202.00
2023-05-09T03:06:13.075Z,1201.00
2023-05-09T03:07:13.221Z,1218.00
2023-05-09T03:08:13.181Z,1218.00
2023-05-09T03:09:13.294Z,1223.00
2023-05-09T03:10:13.269Z,1228.00
2023-05-09T03:11:13.323Z,1241.00
2023-05-09T03:12:13.361Z,1248.00
2023-05-09T03:13:13.529Z,1246.00
2023-05-09T03:14:13.502Z,1222.00
2023-05-09T03:15:13.749Z,1226.00
2023-05-09T03:16:13.582Z,1236.00
2023-05-09T03:17:13.588Z,1240.00
2023-05-09T03:18:13.628Z,1235.00
2023-05-09T03:19:13.695Z,1233.00
2023-05-09T03:20:13.740Z,1230.00
2023-05-09T03:21:13.798Z,1250.00
2023-05-09T03:22:13.846Z,1233.00
2023-05-09T03:23:13.965Z,1222.00
2023-05-09T03:24:13.967Z,1223.00
2023-05-09T03:25:14.184Z,1233.00
2023-05-09T03:26:14.005Z,1226.00
2023-05-09T03:27:14.028Z,1214.00
2023-05-09T03:28:14.093Z,1197.00
2023-05-09T03:29:14.137Z,1196.00
2023-05-09T03:30:14.158Z,1219.00
2023-05-09T03:31:14.221Z,1197.00
2023-05-09T03:32:15.314Z,1198.00
2023-05-09T03:33:14.305Z,1213.00
2023-05-09T03:34:14.488Z,1228.00
2023-05-09T03:35:14.596Z,1237.00
2023-05-09T03:36:14.457Z,1217.00
2023-05-09T03:37:14.484Z,1214.00
2023-05-09T03:38:14.534Z,1223.00
2023-05-09T03:39:14.672Z,1217.00
2023-05-09T03:40:14.637Z,1208.00
2023-05-09T03:41:14.792Z,1202.00
2023-05-09T03:42:14.713Z,1210.00
2023-05-09T03:43:14.764Z,1202.00
2023-05-09T03:44:14.822Z,1201.00
2023-05-09T03:45:15.133Z,1193.00
2023-05-09T03:46:14.916Z,1190.00
2023-05-09T03:47:14.944Z,1178.00
2023-05-09T03:48:14.971Z,1159.00
2023-05-09T03:49:15.028Z,1166.00
2023-05-09T03:50:15.079Z,1172.00
2023-05-09T03:51:15.102Z,1171.00
2023-05-09T03:52:15.187Z,1159.00
2023-05-09T03:53:15.182Z,1150.00
2023-05-09T03:54:15.236Z,1155.00
2023-05-09T03:55:15.620Z,1146.00
2023-05-09T03:56:15.311Z,1153.00
2023-05-09T03:57:15.370Z,1152.00
2023-05-09T03:58:15.396Z,1158.00
2023-05-09T03:59:15.452Z,1158.00
2023-05-09T04:00:15.514Z,1150.00
2023-05-09T04:01:15.519Z,1152.00
2023-05-09T04:02:15.613Z,1165.00
2023-05-09T04:03:15.682Z,1169.00
2023-05-09T04:04:15.661Z,1165.00
2023-05-09T04:05:16.013Z,1154.00
2023-05-09T04:06:15.770Z,1161.00
2023-05-09T04:07:15.804Z,1143.00
2023-05-09T04:08:15.878Z,1165.00
2023-05-09T04:09:15.907Z,1159.00
2023-05-09T04:10:15.952Z,1149.00
2023-05-09T04:11:16.075Z,1133.00
2023-05-09T04:12:16.035Z,1147.00
2023-05-09T04:13:16.147Z,1160.00
2023-05-09T04:14:16.116Z,1143.00
2023-05-09T04:15:16.415Z,1153.00
2023-05-09T04:16:16.244Z,1165.00
2023-05-09T04:17:16.270Z,1166.00
2023-05-09T04:18:16.320Z,1147.00
2023-05-09T04:19:16.555Z,1169.00
2023-05-09T04:20:16.415Z,1153.00
2023-05-09T04:21:16.449Z,1160.00
2023-05-09T04:22:16.515Z,1162.00
2023-05-09T04:23:16.530Z,1155.00
2023-05-09T04:24:16.597Z,1151.00
2023-05-09T04:25:16.755Z,1165.00
2023-05-09T04:26:16.677Z,1181.00
2023-05-09T04:27:16.822Z,1140.00
2023-05-09T04:28:16.758Z,1146.00
2023-05-09T04:29:16.808Z,1152.00
2023-05-09T04:30:16.852Z,1132.00
2023-05-09T04:31:17.015Z,1161.00
2023-05-09T04:32:17.008Z,1165.00
2023-05-09T04:33:16.997Z,1165.00
2023-05-09T04:34:17.039Z,1174.00
2023-05-09T04:35:19.832Z,1158.00
2023-05-09T04:36:17.091Z,1177.00
2023-05-09T04:37:17.109Z,1164.00
2023-05-09T04:38:17.081Z,1160.00
2023-05-09T04:39:17.061Z,1154.00
2023-05-09T04:40:17.068Z,1162.00
2023-05-09T04:41:17.041Z,1168.00
2023-05-09T04:42:17.064Z,1174.00
2023-05-09T04:43:17.115Z,1175.00
2023-05-09T04:44:17.023Z,1179.00
2023-05-09T04:45:17.275Z,1191.00
2023-05-09T04:46:17.035Z,1193.00
2023-05-09T04:47:17.016Z,1197.00
2023-05-09T04:48:17.019Z,1179.00
2023-05-09T04:49:17.011Z,1193.00
2023-05-09T04:50:16.987Z,1155.00
2023-05-09T04:51:17.050Z,1159.00
2023-05-09T04:52:16.996Z,1163.00
2023-05-09T04:53:16.990Z,1182.00
2023-05-09T04:54:16.970Z,1182.00
2023-05-09T04:55:17.191Z,1173.00
2023-05-09T04:56:16.975Z,1179.00
2023-05-09T04:57:18.804Z,1149.00
2023-05-09T04:58:16.933Z,1177.00
2023-05-09T04:59:17.013Z,1183.00
2023-05-09T05:00:16.928Z,1180.00
2023-05-09T05:01:16.952Z,1171.00
2023-05-09T05:02:16.926Z,1188.00
2023-05-09T05:03:17.006Z,1193.00
2023-05-09T05:04:17.033Z,1219.00
2023-05-09T05:05:17.075Z,1215.00
2023-05-09T05:06:17.102Z,1234.00
2023-05-09T05:07:17.154Z,1243.00
2023-05-09T05:08:17.205Z,1237.00
2023-05-09T05:09:17.233Z,1254.00
2023-05-09T05:10:17.294Z,1281.00
2023-05-09T05:11:17.317Z,1245.00
2023-05-09T05:12:17.381Z,1274.00
2023-05-09T05:13:17.508Z,1271.00
2023-05-09T05:14:17.463Z,1280.00
2023-05-09T05:15:17.577Z,1295.00
2023-05-09T05:16:17.638Z,1287.00
2023-05-09T05:17:17.599Z,1302.00
2023-05-09T05:18:17.633Z,1293.00
2023-05-09T05:19:17.677Z,1324.00
2023-05-09T05:20:17.723Z,1327.00
2023-05-09T05:21:17.754Z,1308.00
2023-05-09T05:22:17.807Z,1311.00
2023-05-09T05:23:17.838Z,1331.00
2023-05-09T05:24:17.894Z,1317.00
2023-05-09T05:25:17.928Z,1322.00
2023-05-09T05:26:18.030Z,1329.00
2023-05-09T05:27:18.023Z,1307.00
2023-05-09T05:28:18.062Z,1322.00
2023-05-09T05:29:18.164Z,1320.00
2023-05-09T05:30:18.155Z,1336.00
2023-05-09T05:31:18.284Z,1349.00
2023-05-09T05:32:18.237Z,1370.00
2023-05-09T05:33:18.288Z,1378.00
2023-05-09T05:34:18.301Z,1402.00
2023-05-09T05:35:18.356Z,1452.00
2023-05-09T05:36:18.357Z,1498.00
2023-05-09T05:37:18.396Z,1556.00
2023-05-09T05:38:18.533Z,1558.00
2023-05-09T05:39:18.446Z,1587.00
2023-05-09T05:40:18.457Z,1610.00
2023-05-09T05:41:18.472Z,1632.00
2023-05-09T05:42:18.486Z,1623.00
2023-05-09T05:43:18.512Z,1646.00
2023-05-09T05:44:18.530Z,1674.00
2023-05-09T05:45:18.566Z,1656.00
2023-05-09T05:46:18.658Z,1544.00
2023-05-09T05:47:18.640Z,1487.00
2023-05-09T05:48:18.556Z,1467.00
2023-05-09T05:49:18.567Z,1474.00
2023-05-09T05:50:18.596Z,1452.00
2023-05-09T05:51:18.627Z,1464.00
2023-05-09T05:52:18.655Z,1412.00
2023-05-09T05:53:18.660Z,1377.00
2023-05-09T05:54:18.681Z,1365.00
2023-05-09T05:55:18.715Z,1334.00
2023-05-09T05:56:18.728Z,1464.00
2023-05-09T05:57:18.769Z,1509.00
2023-05-09T05:58:18.821Z,1512.00
2023-05-09T05:59:18.831Z,1547.00
2023-05-09T06:00:18.839Z,1500.00
2023-05-09T06:01:18.855Z,1484.00
2023-05-09T06:02:18.915Z,1483.00
2023-05-09T06:03:19.110Z,1446.00
2023-05-09T06:04:18.960Z,1427.00
2023-05-09T06:05:18.981Z,1446.00
2023-05-09T06:06:19.088Z,1432.00
2023-05-09T06:07:19.031Z,1399.00
2023-05-09T06:08:19.051Z,1355.00
2023-05-09T06:09:19.093Z,1361.00
2023-05-09T06:10:19.169Z,1360.00
2023-05-09T06:11:19.171Z,1337.00
2023-05-09T06:12:19.179Z,1384.00
2023-05-09T06:13:19.677Z,1394.00
2023-05-09T06:14:19.533Z,1315.00
2023-05-09T06:15:19.262Z,1381.00
2023-05-09T06:16:20.506Z,1324.00
2023-05-09T06:17:19.521Z,1375.00
2023-05-09T06:18:19.363Z,1341.00
2023-05-09T06:19:19.627Z,1343.00
2023-05-09T06:20:19.414Z,1327.00
2023-05-09T06:21:19.460Z,1284.00
2023-05-09T06:22:19.500Z,1315.00
2023-05-09T06:23:19.582Z,1373.00
2023-05-09T06:24:28.026Z,1434.00
2023-05-09T06:25:20.579Z,1434.00
2023-05-09T06:26:19.564Z,1370.00
2023-05-09T06:27:19.557Z,1295.00
2023-05-09T06:28:19.577Z,1252.00
2023-05-09T06:29:19.533Z,1254.00
2023-05-09T06:30:26.241Z,1276.00
2023-05-09T06:31:20.660Z,1280.00
2023-05-09T06:32:19.566Z,1302.00
2023-05-09T06:33:19.528Z,1366.00
2023-05-09T06:34:20.057Z,1509.00
2023-05-09T06:35:19.592Z,1706.00
2023-05-09T06:36:19.522Z,1748.00
2023-05-09T06:37:19.523Z,1749.00
2023-05-09T06:38:19.532Z,1689.00
2023-05-09T06:39:19.574Z,1520.00
2023-05-09T06:40:19.466Z,1438.00
2023-05-09T06:41:19.470Z,1440.00
2023-05-09T06:42:19.463Z,1429.00
2023-05-09T06:43:19.450Z,1428.00
2023-05-09T06:44:19.456Z,1401.00
2023-05-09T06:45:19.600Z,1382.00
2023-05-09T06:46:19.480Z,1367.00
2023-05-09T06:47:19.411Z,1355.00
2023-05-09T06:48:19.561Z,1363.00
2023-05-09T06:49:19.413Z,1375.00
2023-05-09T06:50:19.418Z,1404.00
2023-05-09T06:51:19.544Z,1369.00
2023-05-09T06:52:19.472Z,1409.00
2023-05-09T06:53:19.570Z,1407.00
2023-05-09T06:54:19.529Z,1358.00
2023-05-09T06:55:19.560Z,1344.00
2023-05-09T06:56:20.113Z,1370.00
2023-05-09T06:57:19.720Z,1360.00
2023-05-09T06:58:20.202Z,1344.00
2023-05-09T06:59:20.073Z,1366.00
2023-05-09T07:00:19.705Z,1317.00
2023-05-09T07:01:19.890Z,1281.00
2023-05-09T07:02:19.793Z,1251.00
2023-05-09T07:03:19.867Z,1241.00
2023-05-09T07:04:19.820Z,1226.00
2023-05-09T07:05:19.904Z,1260.00
2023-05-09T07:06:19.881Z,1345.00
2023-05-09T07:07:19.992Z,1390.00
2023-05-09T07:08:19.933Z,1386.00
2023-05-09T07:09:19.959Z,1438.00
2023-05-09T07:10:19.934Z,1407.00
2023-05-09T07:11:19.962Z,1323.00
2023-05-09T07:12:19.977Z,1326.00
2023-05-09T07:13:20.077Z,1281.00
2023-05-09T07:14:20.092Z,1264.00
2023-05-09T07:15:32.397Z,1224.00
2023-05-09T07:16:21.073Z,1226.00
2023-05-09T07:17:23.417Z,1236.00
2023-05-09T07:18:20.010Z,1228.00
2023-05-09T07:19:20.101Z,1252.00
2023-05-09T07:20:19.981Z,1269.00
2023-05-09T07:21:19.965Z,1287.00
2023-05-09T07:22:19.986Z,1308.00
2023-05-09T07:23:20.058Z,1288.00
2023-05-09T07:24:20.086Z,1308.00
2023-05-09T07:25:19.961Z,1262.00
2023-05-09T07:26:19.967Z,1292.00
2023-05-09T07:27:19.928Z,1446.00
2023-05-09T07:28:19.932Z,1519.00
2023-05-09T07:29:20.070Z,1595.00
2023-05-09T07:30:19.918Z,1589.00
2023-05-09T07:31:19.910Z,1634.00
2023-05-09T07:32:19.920Z,1643.00
2023-05-09T07:33:20.078Z,1671.00
2023-05-09T07:34:20.096Z,1691.00
2023-05-09T07:35:19.895Z,1701.00
2023-05-09T07:36:19.875Z,1680.00
2023-05-09T07:37:19.865Z,1673.00
2023-05-09T07:38:20.094Z,1587.00
2023-05-09T07:39:20.164Z,1679.00
2023-05-09T07:40:19.842Z,1671.00
2023-05-09T07:41:19.845Z,1663.00
2023-05-09T07:42:19.841Z,1604.00
2023-05-09T07:43:19.812Z,1489.00
2023-05-09T07:44:19.831Z,1530.00
2023-05-09T07:45:22.024Z,1542.00
2023-05-09T07:46:19.915Z,1457.00
2023-05-09T07:47:19.796Z,1506.00
2023-05-09T07:48:19.804Z,1496.00
2023-05-09T07:49:19.777Z,1518.00
2023-05-09T07:50:19.764Z,1538.00
2023-05-09T07:51:19.777Z,1426.00
2023-05-09T07:52:19.769Z,1392.00
2023-05-09T07:53:19.734Z,1365.00
2023-05-09T07:54:20.085Z,1332.00
2023-05-09T07:55:19.821Z,1330.00
2023-05-09T07:56:19.726Z,1376.00
2023-05-09T07:57:19.725Z,1421.00
2023-05-09T07:58:19.736Z,1457.00
2023-05-09T07:59:20.100Z,1530.00
2023-05-09T08:00:19.703Z,1561.00
2023-05-09T08:01:19.699Z,1604.00
2023-05-09T08:02:19.730Z,1620.00
2023-05-09T08:03:19.815Z,1649.00
2023-05-09T08:04:19.719Z,1636.00
2023-05-09T08:05:19.657Z,1680.00
2023-05-09T08:06:19.657Z,1685.00
2023-05-09T08:07:19.654Z,1689.00
2023-05-09T08:08:19.636Z,1692.00
2023-05-09T08:09:19.655Z,1703.00
2023-05-09T08:10:19.642Z,1638.00
2023-05-09T08:11:19.701Z,1669.00
2023-05-09T08:12:19.635Z,1668.00
2023-05-09T08:13:19.636Z,1697.00
2023-05-09T08:14:19.616Z,1710.00
2023-05-09T08:15:19.603Z,1728.00
2023-05-09T08:16:19.694Z,1665.00
2023-05-09T08:17:19.620Z,1739.00
2023-05-09T08:18:19.580Z,1709.00
2023-05-09T08:19:19.612Z,1713.00
2023-05-09T08:20:19.585Z,1540.00
2023-05-09T08:21:22.090Z,1562.00
2023-05-09T08:22:19.824Z,1580.00
2023-05-09T08:23:20.116Z,1600.00
2023-05-09T08:24:19.853Z,1637.00
2023-05-09T08:25:19.864Z,1710.00
2023-05-09T08:26:19.887Z,1737.00
2023-05-09T08:27:19.940Z,1749.00
2023-05-09T08:28:21.677Z,1751.00
2023-05-09T08:29:19.978Z,1743.00
2023-05-09T08:30:20.013Z,1762.00
2023-05-09T08:31:20.130Z,1698.00
2023-05-09T08:32:20.116Z,1715.00
2023-05-09T08:33:20.116Z,1735.00
2023-05-09T08:34:20.170Z,1712.00
2023-05-09T08:35:20.200Z,1612.00
2023-05-09T08:36:20.293Z,1324.00
2023-05-09T08:37:20.311Z,1137.00
2023-05-09T08:38:20.404Z,1259.00
2023-05-09T08:39:20.666Z,1328.00
2023-05-09T08:40:20.500Z,1451.00
2023-05-09T08:41:20.557Z,1492.00
2023-05-09T08:42:20.596Z,1534.00
2023-05-09T08:43:20.730Z,1561.00
2023-05-09T08:44:21.160Z,1594.00
2023-05-09T08:45:20.728Z,1614.00
2023-05-09T08:46:20.798Z,1642.00
2023-05-09T08:47:20.818Z,1660.00
2023-05-09T08:48:20.803Z,1662.00
2023-05-09T08:49:21.125Z,1667.00
2023-05-09T08:50:20.955Z,1669.00
2023-05-09T08:51:20.904Z,1663.00
2023-05-09T08:52:21.047Z,1698.00
2023-05-09T08:53:20.958Z,1692.00
2023-05-09T08:54:22.899Z,1551.00
2023-05-09T08:55:21.140Z,1583.00
2023-05-09T08:56:21.017Z,1652.00
2023-05-09T08:57:21.046Z,1692.00
2023-05-09T08:58:21.089Z,1726.00
2023-05-09T08:59:21.210Z,1744.00
2023-05-09T09:00:21.378Z,1731.00
2023-05-09T09:01:21.177Z,1747.00
2023-05-09T09:02:21.170Z,1750.00
2023-05-09T09:03:21.185Z,1684.00
2023-05-09T09:04:21.659Z,1562.00
2023-05-09T09:05:40.283Z,1633.00
2023-05-09T09:06:22.211Z,1637.00
2023-05-09T09:07:21.195Z,1649.00
2023-05-09T09:08:21.195Z,1673.00
2023-05-09T09:09:21.196Z,1716.00
2023-05-09T09:10:21.216Z,1772.00
2023-05-09T09:11:21.158Z,1752.00
2023-05-09T09:12:21.151Z,1771.00
2023-05-09T09:13:21.208Z,1756.00
2023-05-09T09:14:21.621Z,1745.00
2023-05-09T09:15:21.231Z,1743.00
2023-05-09T09:16:21.208Z,1735.00
2023-05-09T09:17:21.281Z,1704.00
2023-05-09T09:18:21.114Z,1681.00
2023-05-09T09:19:21.127Z,1641.00
2023-05-09T09:20:21.177Z,1658.00
2023-05-09T09:21:21.113Z,1664.00
2023-05-09T09:22:21.110Z,1667.00
2023-05-09T09:23:21.142Z,1674.00
2023-05-09T09:24:21.093Z,1675.00
2023-05-09T09:25:21.083Z,1619.00
2023-05-09T09:26:21.069Z,1430.00
2023-05-09T09:27:21.074Z,1519.00
2023-05-09T09:28:21.117Z,1550.00
2023-05-09T09:29:21.638Z,1504.00
2023-05-09T09:30:21.190Z,1379.00
2023-05-09T09:31:21.261Z,1391.00
2023-05-09T09:32:21.246Z,1433.00
2023-05-09T09:33:21.248Z,1400.00
2023-05-09T09:34:21.676Z,1441.00
2023-05-09T09:35:21.265Z,1499.00
2023-05-09T09:36:21.298Z,1451.00
2023-05-09T09:37:21.312Z,1437.00
2023-05-09T09:38:21.329Z,1451.00
2023-05-09T09:39:21.343Z,1437.00
2023-05-09T09:40:21.359Z,1475.00
2023-05-09T09:41:21.405Z,1464.00
2023-05-09T09:42:21.405Z,1463.00
2023-05-09T09:43:21.434Z,1383.00
2023-05-09T09:44:21.643Z,1383.00
2023-05-09T09:45:21.502Z,1415.00
2023-05-09T09:46:21.563Z,1391.00
2023-05-09T09:47:21.571Z,1407.00
2023-05-09T09:48:21.646Z,1389.00
2023-05-09T09:49:21.653Z,1363.00
2023-05-09T09:50:21.532Z,1350.00
2023-05-09T09:51:21.578Z,1268.00
2023-05-09T09:52:21.550Z,1261.00
2023-05-09T09:53:21.557Z,1258.00
2023-05-09T09:54:22.134Z,1235.00
2023-05-09T09:55:21.597Z,1275.00
2023-05-09T09:56:21.615Z,1279.00
2023-05-09T09:57:21.638Z,1297.00
2023-05-09T09:58:21.609Z,1300.00
2023-05-09T09:59:21.611Z,1306.00
2023-05-09T10:00:21.607Z,1327.00
2023-05-09T10:01:21.800Z,1358.00
2023-05-09T10:02:21.605Z,1381.00
2023-05-09T10:03:21.752Z,1389.00
2023-05-09T10:04:21.666Z,1373.00
2023-05-09T10:05:21.630Z,1394.00
2023-05-09T10:06:21.612Z,1397.00
2023-05-09T10:07:21.635Z,1403.00
2023-05-09T10:08:21.631Z,1420.00
2023-05-09T10:09:21.629Z,1431.00
2023-05-09T10:10:21.695Z,1410.00
2023-05-09T10:11:21.625Z,1395.00
2023-05-09T10:12:21.599Z,1394.00
2023-05-09T10:13:21.696Z,1294.00
2023-05-09T10:14:21.646Z,1260.00
2023-05-09T10:15:21.629Z,1266.00
2023-05-09T10:16:35.600Z,1203.00
2023-05-09T10:17:22.932Z,958.00
2023-05-09T10:18:21.862Z,1140.00
2023-05-09T10:19:21.758Z,1168.00
2023-05-09T10:20:21.608Z,1155.00
2023-05-09T10:21:21.595Z,1162.00
2023-05-09T10:22:21.595Z,959.00
2023-05-09T10:23:21.607Z,899.00
2023-05-09T10:24:21.649Z,863.00
2023-05-09T10:25:21.629Z,972.00
2023-05-09T10:26:21.575Z,1008.00
2023-05-09T10:27:21.598Z,1131.00
2023-05-09T10:28:21.581Z,1227.00
2023-05-09T10:29:21.579Z,1308.00
2023-05-09T10:30:21.569Z,1390.00
2023-05-09T10:31:21.613Z,1183.00
2023-05-09T10:32:21.553Z,1372.00
2023-05-09T10:33:21.554Z,1488.00
2023-05-09T10:34:21.649Z,1523.00
2023-05-09T10:35:21.635Z,1543.00
2023-05-09T10:36:21.530Z,1582.00
2023-05-09T10:37:21.557Z,1625.00
2023-05-09T10:38:21.594Z,1473.00
2023-05-09T10:39:21.660Z,1535.00
2023-05-09T10:40:21.550Z,1567.00
2023-05-09T10:41:21.567Z,1571.00
2023-05-09T10:42:21.579Z,1552.00
2023-05-09T10:43:21.580Z,1546.00
2023-05-09T10:44:21.698Z,1529.00
2023-05-09T10:45:21.587Z,1531.00
2023-05-09T10:46:21.614Z,1567.00
2023-05-09T10:47:21.610Z,1551.00
2023-05-09T10:48:21.597Z,1431.00
2023-05-09T10:49:21.665Z,1285.00
2023-05-09T10:50:21.642Z,1562.00
2023-05-09T10:51:21.680Z,1346.00
2023-05-09T10:52:21.594Z,1481.00
2023-05-09T10:53:21.613Z,1534.00
2023-05-09T10:54:21.651Z,1369.00
2023-05-09T10:55:21.610Z,1654.00
2023-05-09T10:56:21.625Z,1630.00
2023-05-09T10:57:21.597Z,1609.00
2023-05-09T10:58:21.578Z,1447.00
2023-05-09T10:59:21.668Z,1515.00
2023-05-09T11:00:21.580Z,1479.00
2023-05-09T11:01:21.649Z,1273.00
2023-05-09T11:02:21.612Z,1355.00
2023-05-09T11:03:21.713Z,951.00
2023-05-09T11:04:21.686Z,1198.00
2023-05-09T11:05:21.590Z,1414.00
2023-05-09T11:06:21.614Z,1436.00
2023-05-09T11:07:21.683Z,1333.00
2023-05-09T11:08:21.570Z,1301.00
2023-05-09T11:09:21.600Z,1100.00
2023-05-09T11:10:21.591Z,946.00
2023-05-09T11:11:21.598Z,734.00
2023-05-09T11:12:21.605Z,913.00
2023-05-09T11:13:21.644Z,497.00
2023-05-09T11:14:21.678Z,501.00
2023-05-09T11:15:21.693Z,400.00
2023-05-09T11:16:21.614Z,400.00
2023-05-09T11:17:21.691Z,400.00
2023-05-09T11:18:21.625Z,489.00
2023-05-09T11:19:21.622Z,568.00
2023-05-09T11:20:21.637Z,541.00
2023-05-09T11:21:21.678Z,496.00
2023-05-09T11:22:21.687Z,483.00
2023-05-09T11:23:21.771Z,550.00
2023-05-09T11:24:21.689Z,472.00
2023-05-09T11:25:21.711Z,479.00
2023-05-09T11:26:21.711Z,642.00
2023-05-09T11:27:21.744Z,668.00
2023-05-09T11:28:21.781Z,623.00
2023-05-09T11:29:21.763Z,568.00
2023-05-09T11:30:21.809Z,545.00
2023-05-09T11:31:21.843Z,543.00
2023-05-09T11:32:21.896Z,561.00
2023-05-09T11:33:21.851Z,506.00
2023-05-09T11:34:21.882Z,525.00
2023-05-09T11:35:21.895Z,552.00
2023-05-09T11:36:21.924Z,541.00
2023-05-09T11:37:21.935Z,553.00
2023-05-09T11:38:21.977Z,570.00
2023-05-09T11:39:22.065Z,535.00
2023-05-09T11:40:22.035Z,400.00
2023-05-09T11:41:22.001Z,412.00
2023-05-09T11:42:22.005Z,433.00
2023-05-09T11:43:22.014Z,400.00
2023-05-09T11:44:22.050Z,400.00
2023-05-09T11:45:22.080Z,520.00
2023-05-09T11:46:22.074Z,599.00
2023-05-09T11:47:22.154Z,638.00
2023-05-09T11:48:22.148Z,632.00
2023-05-09T11:49:22.240Z,526.00
2023-05-09T11:50:22.217Z,505.00
2023-05-09T11:51:22.246Z,493.00
2023-05-09T11:52:22.264Z,534.00
2023-05-09T11:53:22.327Z,631.00
2023-05-09T11:54:22.369Z,1574.00
2023-05-09T11:55:22.555Z,2005.00
2023-05-09T11:56:22.422Z,2314.00
2023-05-09T11:57:22.429Z,2480.00
2023-05-09T11:58:22.466Z,2440.00
2023-05-09T11:59:22.499Z,2461.00
2023-05-09T12:00:22.513Z,2490.00
2023-05-09T12:01:22.538Z,2445.00
2023-05-09T12:02:22.657Z,2472.00
2023-05-09T12:03:22.705Z,2519.00
2023-05-09T12:04:22.632Z,2500.00
2023-05-09T12:05:22.715Z,2441.00
2023-05-09T12:06:22.653Z,2501.00
2023-05-09T12:07:22.679Z,2548.00